createdAt,value
2019-03-09T00:01:30.375Z,7.75
2019-03-09T00:03:59.415Z,6.03
2019-03-09T00:06:28.645Z,8.03
2019-03-09T00:09:00.535Z,8.63
2019-03-09T00:11:30.291Z,8.75
2019-03-09T00:14:02.017Z,8.43
2019-03-09T00:16:31.393Z,9.30
2019-03-09T00:19:02.485Z,8.33
2019-03-09T00:21:31.521Z,8.48
2019-03-09T00:24:24.013Z,9.25
2019-03-09T00:26:59.071Z,10.78
2019-03-09T00:29:36.756Z,10.40
2019-03-09T00:32:10.274Z,10.18
2019-03-09T00:34:39.710Z,10.75
2019-03-09T00:37:08.726Z,10.65
2019-03-09T00:39:40.556Z,11.30
2019-03-09T00:42:10.466Z,11.53
2019-03-09T00:44:40.789Z,11.22
2019-03-09T00:47:16.367Z,10.60
2019-03-09T00:49:49.090Z,11.97
2019-03-09T00:52:22.621Z,10.82
2019-03-09T00:54:53.081Z,11.65
2019-03-09T00:57:22.268Z,11.30
2019-03-09T00:59:52.764Z,12.55
2019-03-09T01:02:21.728Z,10.05
2019-03-09T01:04:52.028Z,10.82
2019-03-09T01:07:26.455Z,12.13
2019-03-09T01:09:55.496Z,11.50
2019-03-09T01:12:27.544Z,12.40
2019-03-09T01:14:56.550Z,12.37
2019-03-09T01:17:25.616Z,10.72
2019-03-09T01:19:54.672Z,11.55
2019-03-09T01:22:23.644Z,12.10
2019-03-09T01:24:52.807Z,11.78
2019-03-09T01:27:21.746Z,11.40
2019-03-09T01:29:50.806Z,9.98
2019-03-09T01:32:22.824Z,8.65
2019-03-09T01:34:54.887Z,8.88
2019-03-09T01:37:23.915Z,7.83
2019-03-09T01:39:52.952Z,8.40
2019-03-09T01:42:21.961Z,7.87
2019-03-09T01:44:51.005Z,7.35
2019-03-09T01:47:22.709Z,7.67
2019-03-09T01:49:51.673Z,7.78
2019-03-09T01:52:20.630Z,6.00
2019-03-09T01:54:49.631Z,6.15
2019-03-09T01:57:18.600Z,8.48
2019-03-09T01:59:47.610Z,7.85
2019-03-09T02:02:21.284Z,7.05
2019-03-09T02:04:50.329Z,9.43
2019-03-09T02:07:22.023Z,8.35
2019-03-09T02:09:50.986Z,7.55
2019-03-09T02:12:20.520Z,8.60
2019-03-09T02:14:50.297Z,7.35
2019-03-09T02:17:19.279Z,7.78
2019-03-09T02:19:48.287Z,7.40
2019-03-09T02:22:17.284Z,6.60
2019-03-09T02:24:51.017Z,5.60
2019-03-09T02:27:21.531Z,5.87
2019-03-09T02:29:50.618Z,5.80
2019-03-09T02:32:22.500Z,5.95
2019-03-09T02:34:53.900Z,5.55
2019-03-09T02:37:22.938Z,5.03
2019-03-09T02:40:00.551Z,5.15
2019-03-09T02:42:25.038Z,5.72
2019-03-09T02:44:54.004Z,5.70
2019-03-09T02:47:22.998Z,5.00
2019-03-09T02:49:51.999Z,4.08
2019-03-09T02:52:21.058Z,4.45
2019-03-09T02:54:50.021Z,5.37
2019-03-09T02:57:25.012Z,5.42
2019-03-09T02:59:54.180Z,4.30
2019-03-09T03:02:24.737Z,4.57
2019-03-09T03:04:53.726Z,4.90
2019-03-09T03:07:22.685Z,5.00
2019-03-09T03:09:51.661Z,5.25
2019-03-09T03:12:22.255Z,4.10
2019-03-09T03:14:51.288Z,4.45
2019-03-09T03:17:22.804Z,4.15
2019-03-09T03:19:51.822Z,4.03
2019-03-09T03:22:20.895Z,4.42
2019-03-09T03:24:50.425Z,3.67
2019-03-09T03:27:19.379Z,3.87
2019-03-09T03:29:48.557Z,3.72
2019-03-09T03:32:17.581Z,3.83
2019-03-09T03:34:46.628Z,3.72
2019-03-09T03:37:15.650Z,3.92
2019-03-09T03:39:47.602Z,3.22
2019-03-09T03:42:20.029Z,3.30
2019-03-09T03:44:55.297Z,3.33
2019-03-09T03:47:24.345Z,3.30
2019-03-09T03:49:54.472Z,3.27
2019-03-09T03:52:27.730Z,3.62
2019-03-09T03:54:59.854Z,4.00
2019-03-09T03:57:28.915Z,4.15
2019-03-09T03:59:57.948Z,3.98
2019-03-09T04:02:31.487Z,3.37
2019-03-09T04:05:00.540Z,4.33
2019-03-09T04:07:31.132Z,3.77
2019-03-09T04:10:01.312Z,4.37
2019-03-09T04:12:31.791Z,3.98
2019-03-09T04:15:21.955Z,4.83
2019-03-09T04:17:52.729Z,4.67
2019-03-09T04:20:21.738Z,3.72
2019-03-09T04:22:51.954Z,3.90
2019-03-09T04:25:22.568Z,3.70
2019-03-09T04:27:51.521Z,3.52
2019-03-09T04:30:20.495Z,3.33
2019-03-09T04:32:49.476Z,3.50
2019-03-09T04:35:27.621Z,3.17
2019-03-09T04:37:56.577Z,3.47
2019-03-09T04:40:27.645Z,3.35
2019-03-09T04:42:59.273Z,3.83
2019-03-09T04:45:50.709Z,3.33
2019-03-09T04:48:20.561Z,3.55
2019-03-09T04:50:49.733Z,3.92
2019-03-09T04:53:18.698Z,3.87
2019-03-09T04:55:47.703Z,3.95
2019-03-09T04:58:16.662Z,4.15
2019-03-09T05:00:45.653Z,4.22
2019-03-09T05:03:17.787Z,4.17
2019-03-09T05:05:48.849Z,4.30
2019-03-09T05:08:21.049Z,4.10
2019-03-09T05:10:51.783Z,4.17
2019-03-09T05:13:23.905Z,3.70
2019-03-09T05:15:55.610Z,4.47
2019-03-09T05:18:26.095Z,3.42
2019-03-09T05:20:55.102Z,4.10
2019-03-09T05:23:24.096Z,3.60
2019-03-09T05:25:53.113Z,3.30
2019-03-09T05:28:22.151Z,2.98
2019-03-09T05:30:51.197Z,3.15
2019-03-09T05:33:21.671Z,3.00
2019-03-09T05:35:55.111Z,2.72
2019-03-09T05:38:24.069Z,2.37
2019-03-09T05:40:53.033Z,2.80
2019-03-09T05:43:26.362Z,2.80
2019-03-09T05:45:56.862Z,3.20
2019-03-09T05:48:25.832Z,2.92
2019-03-09T05:50:58.399Z,3.10
2019-03-09T05:53:33.081Z,3.30
2019-03-09T05:56:02.050Z,3.70
2019-03-09T05:58:33.368Z,4.30
2019-03-09T06:04:54.580Z,5.92
2019-03-09T06:07:23.544Z,6.65
2019-03-09T06:09:54.035Z,6.80
2019-03-09T06:12:23.080Z,6.65
2019-03-09T06:14:55.102Z,7.42
2019-03-09T06:17:29.176Z,5.62
2019-03-09T06:19:58.205Z,6.17
2019-03-09T06:22:33.338Z,4.97
2019-03-09T06:25:02.313Z,5.53
2019-03-09T06:27:31.386Z,4.92
2019-03-09T06:30:02.876Z,4.40
2019-03-09T06:32:42.486Z,4.00
2019-03-09T06:35:21.520Z,3.27
2019-03-09T06:38:08.116Z,3.60
2019-03-09T06:40:39.006Z,3.67
2019-03-09T06:43:09.010Z,4.17
2019-03-09T06:48:06.201Z,3.30
2019-03-09T06:50:35.172Z,4.10
2019-03-09T06:53:06.038Z,3.80
2019-03-09T06:55:35.286Z,4.30
2019-03-09T06:58:04.222Z,4.10
2019-03-09T07:00:34.875Z,4.50
2019-03-09T07:03:04.093Z,4.65
2019-03-09T07:05:33.186Z,4.07
2019-03-09T07:08:04.441Z,4.40
2019-03-09T07:10:33.479Z,4.87
2019-03-09T07:13:03.516Z,3.70
2019-03-09T07:15:38.164Z,4.03
2019-03-09T07:18:13.935Z,4.00
2019-03-09T07:20:43.065Z,4.12
2019-03-09T07:23:14.095Z,3.83
2019-03-09T07:25:43.230Z,3.72
2019-03-09T07:28:13.447Z,3.50
2019-03-09T07:30:42.465Z,4.47
2019-03-09T07:33:11.438Z,3.70
2019-03-09T07:35:40.389Z,4.55
2019-03-09T07:38:12.440Z,4.25
2019-03-09T07:40:46.574Z,5.28
2019-03-09T07:43:15.720Z,5.10
2019-03-09T07:45:49.202Z,4.97
2019-03-09T07:48:19.821Z,4.70
2019-03-09T07:50:48.794Z,4.37
2019-03-09T07:53:20.983Z,4.70
2019-03-09T07:55:49.941Z,4.62
2019-03-09T07:58:19.003Z,4.47
2019-03-09T08:00:49.506Z,4.65
2019-03-09T08:03:18.481Z,5.00
2019-03-09T08:05:47.624Z,5.28
2019-03-09T08:08:22.611Z,5.08
2019-03-09T08:10:54.837Z,6.05
2019-03-09T08:13:23.819Z,4.45
2019-03-09T08:15:52.779Z,4.55
2019-03-09T08:18:24.206Z,5.25
2019-03-09T08:20:53.333Z,4.85
2019-03-09T08:23:22.328Z,4.67
2019-03-09T08:25:51.310Z,4.97
2019-03-09T08:28:20.288Z,4.78
2019-03-09T08:30:52.190Z,4.40
2019-03-09T08:33:21.555Z,4.70
2019-03-09T08:35:50.565Z,5.37
2019-03-09T08:38:38.864Z,5.17
2019-03-09T08:41:07.894Z,4.65
2019-03-09T08:43:37.007Z,4.42
2019-03-09T08:46:07.074Z,4.20
2019-03-09T08:48:39.335Z,5.17
2019-03-09T08:51:10.519Z,5.20
2019-03-09T08:53:40.375Z,4.85
2019-03-09T08:56:11.470Z,4.80
2019-03-09T08:58:40.455Z,4.80
2019-03-09T09:01:09.570Z,4.55
2019-03-09T09:03:38.574Z,4.75
2019-03-09T09:06:07.545Z,4.10
2019-03-09T09:08:36.636Z,5.12
2019-03-09T09:11:06.974Z,5.47
2019-03-09T09:13:39.902Z,5.20
2019-03-09T09:16:10.803Z,5.00
2019-03-09T09:18:39.754Z,5.45
2019-03-09T09:21:11.393Z,4.90
2019-03-09T09:23:41.689Z,4.67
2019-03-09T09:26:10.728Z,5.00
2019-03-09T09:28:39.700Z,4.62
2019-03-09T09:31:08.666Z,4.97
2019-03-09T09:33:38.352Z,4.25
2019-03-09T09:36:07.307Z,4.05
2019-03-09T09:38:42.298Z,4.58
2019-03-09T09:41:16.982Z,4.60
2019-03-09T09:43:45.950Z,5.85
2019-03-09T09:46:14.922Z,4.33
2019-03-09T09:48:43.931Z,5.47
2019-03-09T09:51:12.992Z,4.62
2019-03-09T09:53:42.015Z,5.17
2019-03-09T09:56:11.080Z,4.75
2019-03-09T09:58:40.053Z,4.90
2019-03-09T10:01:12.121Z,5.22
2019-03-09T10:03:41.119Z,5.15
2019-03-09T10:06:10.401Z,5.60
2019-03-09T10:08:42.714Z,5.33
2019-03-09T10:11:11.679Z,5.47
2019-03-09T10:13:40.948Z,5.08
2019-03-09T10:16:10.595Z,6.20
2019-03-09T10:18:45.783Z,6.35
2019-03-09T10:21:15.336Z,5.83
2019-03-09T10:23:45.495Z,5.78
2019-03-09T10:26:14.485Z,7.30
2019-03-09T10:28:43.617Z,7.10
2019-03-09T10:31:13.131Z,6.50
2019-03-09T10:33:42.105Z,6.87
2019-03-09T10:36:11.075Z,5.90
2019-03-09T10:38:40.171Z,5.80
2019-03-09T10:41:13.725Z,6.28
2019-03-09T10:43:46.857Z,5.60
2019-03-09T10:46:13.330Z,5.60
2019-03-09T10:48:42.373Z,6.30
2019-03-09T10:51:11.361Z,5.22
2019-03-09T10:53:46.683Z,5.55
2019-03-09T10:56:17.195Z,5.65
2019-03-09T10:58:47.779Z,5.42
2019-03-09T11:01:21.248Z,6.12
2019-03-09T11:03:53.419Z,6.20
2019-03-09T11:06:24.661Z,6.00
2019-03-09T11:08:53.891Z,7.00
2019-03-09T11:11:25.315Z,6.08
2019-03-09T11:13:57.449Z,4.85
2019-03-09T11:16:34.943Z,5.10
2019-03-09T11:19:05.851Z,5.22
2019-03-09T11:21:41.854Z,6.35
2019-03-09T11:24:14.883Z,5.72
2019-03-09T11:26:43.919Z,6.12
2019-03-09T11:29:15.897Z,6.22
2019-03-09T11:31:48.046Z,5.80
2019-03-09T11:34:16.993Z,4.75
2019-03-09T11:39:18.316Z,6.35
2019-03-09T11:41:52.282Z,5.62
2019-03-09T11:44:21.271Z,6.78
2019-03-09T11:46:50.258Z,6.83
2019-03-09T11:49:19.280Z,5.83
2019-03-09T11:51:49.148Z,4.22
2019-03-09T11:54:20.936Z,5.97
2019-03-09T11:56:53.102Z,4.58
2019-03-09T11:59:24.479Z,6.08
2019-03-09T12:01:54.982Z,6.03
2019-03-09T12:04:24.038Z,4.53
2019-03-09T12:06:53.002Z,5.40
2019-03-09T12:09:21.980Z,5.97
2019-03-09T12:11:55.544Z,6.10
2019-03-09T12:14:27.585Z,6.50
2019-03-09T12:23:51.250Z,6.40
2019-03-09T12:26:20.174Z,6.67
2019-03-09T12:28:49.186Z,7.33
2019-03-09T12:31:19.671Z,6.37
2019-03-09T12:33:50.053Z,6.12
2019-03-09T12:36:20.574Z,6.12
2019-03-09T12:38:51.301Z,6.58
2019-03-09T12:41:20.721Z,6.90
2019-03-09T12:43:52.209Z,5.55
2019-03-09T12:46:24.993Z,6.33
2019-03-09T12:48:56.756Z,5.72
2019-03-09T12:51:27.045Z,6.22
2019-03-09T12:53:56.117Z,5.20
2019-03-09T12:56:25.058Z,5.37
2019-03-09T12:58:54.019Z,6.12
2019-03-09T13:01:23.055Z,6.20
2019-03-09T13:03:54.998Z,6.12
2019-03-09T13:06:26.672Z,6.72
2019-03-09T13:08:56.949Z,6.03
2019-03-09T13:11:31.207Z,6.20
2019-03-09T13:14:00.193Z,6.15
2019-03-09T13:16:29.221Z,5.92
2019-03-09T13:18:58.252Z,6.22
2019-03-09T13:21:28.799Z,5.65
2019-03-09T13:23:59.297Z,5.90
2019-03-09T13:26:30.056Z,6.83
2019-03-09T13:28:59.014Z,5.50
2019-03-09T13:31:29.694Z,6.80
2019-03-09T13:33:58.718Z,6.45
2019-03-09T13:36:33.718Z,6.15
2019-03-09T13:39:05.241Z,5.87
2019-03-09T13:41:34.578Z,7.10
2019-03-09T13:44:06.435Z,6.58
2019-03-09T13:46:36.310Z,5.87
2019-03-09T13:49:08.841Z,6.28
2019-03-09T13:51:37.898Z,6.33
2019-03-09T13:54:06.999Z,6.42
2019-03-09T13:56:36.268Z,6.77
2019-03-09T13:59:09.850Z,6.60
2019-03-09T14:01:40.401Z,6.75
2019-03-09T14:04:11.078Z,5.03
2019-03-09T14:06:40.044Z,5.72
2019-03-09T14:09:09.274Z,5.35
2019-03-09T14:11:40.817Z,5.12
2019-03-09T14:14:11.911Z,5.53
2019-03-09T14:16:40.449Z,6.67
2019-03-09T14:19:09.408Z,5.97
2019-03-09T14:21:44.043Z,6.75
2019-03-09T14:24:13.006Z,5.85
2019-03-09T14:26:42.345Z,5.58
2019-03-09T14:29:14.169Z,5.50
2019-03-09T14:31:43.133Z,5.75
2019-03-09T14:34:12.087Z,6.25
2019-03-09T14:36:41.159Z,4.72
2019-03-09T14:39:10.352Z,4.30
2019-03-09T14:41:39.356Z,2.63
2019-03-09T14:44:09.335Z,1.37
2019-03-09T14:49:08.097Z,1.42
2019-03-09T14:51:41.900Z,1.92
2019-03-09T14:54:13.892Z,1.80
2019-03-09T14:56:42.927Z,2.85
2019-03-09T14:59:11.941Z,4.20
2019-03-09T15:01:40.917Z,2.08
2019-03-09T15:04:12.600Z,2.33
2019-03-09T15:06:41.576Z,3.30
2019-03-09T15:09:11.623Z,2.52
2019-03-09T15:14:12.071Z,2.62
2019-03-09T15:16:43.251Z,1.95
2019-03-09T15:19:12.217Z,2.15
2019-03-09T15:21:41.419Z,2.12
2019-03-09T15:24:10.509Z,1.95
2019-03-09T15:26:39.461Z,1.77
2019-03-09T15:29:10.061Z,3.60
2019-03-09T15:31:39.025Z,2.27
2019-03-09T15:34:07.993Z,2.65
2019-03-09T15:36:38.097Z,3.12
2019-03-09T15:41:39.697Z,3.20
2019-03-09T15:44:12.449Z,2.58
2019-03-09T15:46:41.477Z,3.15
2019-03-09T15:49:10.847Z,3.62
2019-03-09T15:51:39.846Z,3.35
2019-03-09T15:56:41.712Z,3.27
2019-03-09T15:59:12.747Z,3.05
2019-03-09T16:01:41.875Z,3.33
2019-03-09T16:04:10.907Z,3.03
2019-03-09T16:06:39.956Z,2.85
2019-03-09T16:09:11.305Z,2.65
2019-03-09T16:11:44.829Z,2.77
2019-03-09T16:14:13.068Z,3.05
2019-03-09T16:16:45.053Z,2.75
2019-03-09T16:19:19.702Z,2.95
2019-03-09T16:21:50.422Z,3.12
2019-03-09T16:24:20.986Z,2.67
2019-03-09T16:26:49.942Z,3.22
2019-03-09T16:29:24.321Z,2.92
2019-03-09T16:31:54.090Z,2.65
2019-03-09T16:34:23.136Z,3.45
2019-03-09T16:36:52.166Z,3.10
2019-03-09T16:39:21.468Z,2.60
2019-03-09T16:41:50.488Z,2.95
2019-03-09T16:44:19.674Z,3.27
2019-03-09T16:46:48.638Z,3.67
2019-03-09T16:49:17.586Z,3.60
2019-03-09T16:51:49.003Z,3.50
2019-03-09T16:54:19.162Z,3.30
2019-03-09T16:59:16.680Z,3.80
2019-03-09T17:01:47.928Z,3.62
2019-03-09T17:04:16.896Z,3.33
2019-03-09T17:06:46.769Z,3.30
2019-03-09T17:09:15.788Z,3.47
2019-03-09T17:11:44.814Z,3.58
2019-03-09T17:14:13.840Z,2.70
2019-03-09T17:16:42.876Z,3.77
2019-03-09T17:19:11.954Z,3.55
2019-03-09T17:21:40.907Z,3.33
2019-03-09T17:24:09.979Z,4.42
2019-03-09T17:26:38.967Z,3.50
2019-03-09T17:29:11.652Z,4.20
2019-03-09T17:31:40.614Z,4.55
2019-03-09T17:34:09.581Z,3.95
2019-03-09T17:36:38.568Z,4.20
2019-03-09T17:39:09.219Z,4.22
2019-03-09T17:41:40.641Z,3.70
2019-03-09T17:44:09.697Z,3.87
2019-03-09T17:46:39.735Z,3.92
2019-03-09T17:51:40.211Z,2.85
2019-03-09T17:54:09.181Z,3.25
2019-03-09T17:56:38.179Z,2.58
2019-03-09T17:59:11.643Z,2.70
2019-03-09T18:01:41.521Z,2.75
2019-03-09T18:04:10.499Z,3.02
2019-03-09T18:06:44.041Z,2.77
2019-03-09T18:09:13.065Z,2.90
2019-03-09T18:11:45.463Z,2.70
2019-03-09T18:14:16.765Z,3.20
2019-03-09T18:16:52.689Z,2.62
2019-03-09T18:19:17.857Z,3.75
2019-03-09T18:21:46.829Z,2.10
2019-03-09T18:24:15.909Z,2.60
2019-03-09T18:26:44.920Z,2.05
2019-03-09T18:29:13.875Z,2.50
2019-03-09T18:31:45.635Z,2.40
2019-03-09T18:34:15.612Z,2.08
2019-03-09T18:36:44.601Z,2.17
2019-03-09T18:39:13.570Z,2.05
2019-03-09T18:41:42.666Z,2.87
2019-03-09T18:44:11.630Z,2.52
2019-03-09T18:46:40.604Z,2.55
2019-03-09T18:49:17.316Z,2.40
2019-03-09T18:51:47.968Z,2.35
2019-03-09T18:54:19.278Z,2.40
2019-03-09T18:56:52.222Z,2.92
2019-03-09T18:59:24.124Z,2.40
2019-03-09T19:01:53.068Z,3.30
2019-03-09T19:04:25.508Z,3.50
2019-03-09T19:06:54.599Z,3.50
2019-03-09T19:09:23.562Z,3.42
2019-03-09T19:11:52.542Z,3.02
2019-03-09T19:14:21.490Z,3.10
2019-03-09T19:16:50.623Z,3.15
2019-03-09T19:19:19.616Z,3.43
2019-03-09T19:21:51.954Z,3.40
2019-03-09T19:24:22.716Z,3.15
2019-03-09T19:26:52.428Z,3.72
2019-03-09T19:29:21.590Z,3.15
2019-03-09T19:31:50.617Z,2.63
2019-03-09T19:34:19.653Z,2.90
2019-03-09T19:36:51.093Z,2.85
2019-03-09T19:39:20.948Z,3.30
2019-03-09T19:41:49.975Z,3.40
2019-03-09T19:44:23.514Z,3.22
2019-03-09T19:46:54.818Z,3.98
2019-03-09T19:49:27.060Z,4.12
2019-03-09T19:51:56.055Z,4.05
2019-03-09T19:54:25.172Z,2.33
2019-03-09T19:56:55.709Z,3.37
2019-03-09T19:59:30.772Z,2.67
2019-03-09T20:01:59.807Z,3.00
2019-03-09T20:04:28.866Z,2.92
2019-03-09T20:06:57.838Z,3.30
2019-03-09T20:09:33.588Z,3.60
2019-03-09T20:12:02.544Z,2.62
2019-03-09T20:14:31.575Z,3.00
2019-03-09T20:17:00.533Z,2.95
2019-03-09T20:19:30.017Z,3.47
2019-03-09T20:22:00.088Z,2.98
2019-03-09T20:27:00.442Z,2.83
2019-03-09T20:29:33.977Z,2.77
2019-03-09T20:32:06.225Z,3.25
2019-03-09T20:34:42.542Z,2.62
2019-03-09T20:37:13.456Z,2.75
2019-03-09T20:39:44.083Z,2.87
2019-03-09T20:42:13.045Z,3.22
2019-03-09T20:44:42.005Z,3.12
2019-03-09T20:47:10.974Z,3.50
2019-03-09T20:53:25.115Z,3.37
2019-03-09T20:55:54.173Z,3.45
2019-03-09T20:58:26.007Z,2.83
2019-03-09T21:00:58.143Z,3.22
2019-03-09T21:03:27.272Z,4.55
2019-03-09T21:05:56.526Z,4.03
2019-03-09T21:08:30.098Z,3.10
2019-03-09T21:11:04.210Z,3.20
2019-03-09T21:13:36.310Z,3.45
2019-03-09T21:16:05.453Z,3.20
2019-03-09T21:18:36.981Z,3.70
2019-03-09T21:21:06.054Z,2.70
2019-03-09T21:23:35.645Z,3.67
2019-03-09T21:26:07.368Z,2.80
2019-03-09T21:28:36.394Z,3.58
2019-03-09T21:31:07.650Z,3.55
2019-03-09T21:33:36.656Z,3.02
2019-03-09T21:36:05.707Z,2.70
2019-03-09T21:38:34.738Z,2.87
2019-03-09T21:41:03.688Z,3.72
2019-03-09T21:43:36.482Z,3.33
2019-03-09T21:46:08.896Z,2.87
2019-03-09T21:48:40.471Z,4.35
2019-03-09T21:51:09.429Z,3.22
2019-03-09T21:53:41.488Z,3.35
2019-03-09T21:56:11.654Z,3.72
2019-03-09T22:01:08.807Z,3.62
2019-03-09T22:03:39.569Z,3.47
2019-03-09T22:09:39.757Z,3.27
2019-03-09T22:12:08.732Z,3.17
2019-03-09T22:14:37.894Z,3.60
2019-03-09T22:17:28.209Z,2.75
2019-03-09T22:19:57.220Z,2.90
2019-03-09T22:22:26.468Z,3.10
2019-03-09T22:24:55.530Z,2.60
2019-03-09T22:27:24.500Z,2.62
2019-03-09T22:29:56.513Z,2.90
2019-03-09T22:32:25.560Z,2.05
2019-03-09T22:34:57.066Z,2.72
2019-03-09T22:37:26.055Z,2.85
2019-03-09T22:39:57.778Z,3.08
2019-03-09T22:42:26.757Z,2.62
2019-03-09T22:44:56.209Z,2.60
2019-03-09T22:47:25.232Z,2.85
2019-03-09T22:49:54.219Z,2.65
2019-03-09T22:52:24.366Z,2.17
2019-03-09T22:54:54.563Z,2.22
2019-03-09T22:57:25.195Z,2.90
2019-03-09T22:59:55.719Z,2.62
2019-03-09T23:02:28.509Z,2.62
2019-03-09T23:05:00.645Z,2.25
2019-03-09T23:07:29.625Z,2.45
2019-03-09T23:10:00.107Z,2.58
2019-03-09T23:12:42.664Z,2.50
2019-03-09T23:15:12.675Z,2.52
2019-03-09T23:20:11.012Z,2.55
2019-03-09T23:25:10.625Z,2.83
2019-03-09T23:27:45.282Z,2.92
2019-03-09T23:30:25.380Z,2.95
2019-03-09T23:35:22.563Z,3.40
2019-03-09T23:37:51.561Z,3.22
2019-03-09T23:40:21.717Z,3.60
2019-03-09T23:42:51.898Z,3.08
2019-03-09T23:45:27.666Z,2.80
2019-03-09T23:47:56.953Z,2.77
2019-03-09T23:50:29.553Z,3.40
2019-03-09T23:52:58.559Z,3.83
2019-03-09T23:55:31.874Z,3.50
2019-03-09T23:58:03.369Z,3.02
